Time;durP1;ratioP1;P1;durP2;ratioP2;P2;SDS_P1;SDS_P2;PMS_P1;PMS_P2;Temp;Humidity;BMP_temperature;BMP_pressure;BME280_temperature;BME280_humidity;BME280_pressure;Samples;Min_cycle;Max_cycle;Signal;HPM_P1;HPM_P2
2023/03/24 10:22:06;;;;;;;4.73;0.70;;;14.30;99.90;;;;;;3495859;23;20224;-84
2023/03/24 10:24:41;;;;;;;3.43;0.60;;;14.10;99.90;;;;;;4948376;29;20730;-74
2023/03/24 10:27:15;;;;;;;2.50;0.60;;;13.80;99.90;;;;;;4957411;28;20199;-76
2023/03/24 10:29:45;;;;;;;1.60;0.53;;;13.70;99.90;;;;;;4957069;28;20231;-74
2023/03/24 10:32:18;;;;;;;3.03;0.93;;;13.80;99.90;;;;;;4957528;28;20208;-73
2023/03/24 10:34:48;;;;;;;2.93;0.70;;;13.90;99.90;;;;;;4957237;28;20319;-74
2023/03/24 10:37:16;;;;;;;4.17;0.60;;;14.10;99.90;;;;;;4956979;28;20215;-74
2023/03/24 10:39:43;;;;;;;4.03;0.87;;;14.30;99.90;;;;;;4956717;28;20270;-76
2023/03/24 10:42:15;;;;;;;5.37;0.80;;;14.50;99.90;;;;;;4957023;28;20295;-73
2023/03/24 10:44:46;;;;;;;5.23;0.67;;;14.60;99.90;;;;;;4955608;28;20238;-77
2023/03/24 10:47:16;;;;;;;3.33;1.23;;;14.30;99.90;;;;;;4956975;28;20216;-74
2023/03/24 10:49:53;;;;;;;5.90;0.50;;;14.50;99.90;;;;;;4955556;28;20224;-77
2023/03/24 10:52:23;;;;;;;1.47;0.70;;;14.70;99.90;;;;;;4954794;28;20389;-74
2023/03/24 10:54:56;;;;;;;6.20;0.60;;;14.70;99.90;;;;;;4955264;28;20215;-76
2023/03/24 10:57:24;;;;;;;0.90;0.40;;;14.90;99.90;;;;;;4955436;28;20216;-77
2023/03/24 10:59:55;;;;;;;3.50;0.67;;;15.20;99.90;;;;;;4954437;28;20247;-74
2023/03/24 11:02:24;;;;;;;3.63;0.53;;;15.50;99.90;;;;;;4955722;28;20619;-77
2023/03/24 11:04:56;;;;;;;4.90;0.70;;;15.90;99.90;;;;;;4955406;28;20208;-77
2023/03/24 11:07:29;;;;;;;1.67;0.50;;;16.20;99.90;;;;;;4955133;28;20208;-76
2023/03/24 11:10:00;;;;;;;2.60;0.60;;;16.20;99.90;;;;;;4954871;28;20653;-76
2023/03/24 11:12:29;;;;;;;8.80;0.83;;;15.90;99.90;;;;;;4955069;28;20653;-77
2023/03/24 11:15:04;;;;;;;2.90;0.60;;;16.00;99.90;;;;;;4954331;28;20215;-76
2023/03/24 11:17:31;;;;;;;4.13;0.63;;;15.80;99.90;;;;;;4954887;28;20204;-75
2023/03/24 11:19:58;;;;;;;2.40;0.67;;;15.80;99.90;;;;;;4954393;28;20330;-75
2023/03/24 11:22:26;;;;;;;1.47;0.40;;;15.70;99.90;;;;;;4954232;28;20220;-76
2023/03/24 11:24:56;;;;;;;1.57;0.40;;;15.60;99.90;;;;;;4954490;28;20214;-81
2023/03/24 11:27:23;;;;;;;1.70;0.50;;;15.40;99.90;;;;;;4954737;28;20227;-75
2023/03/24 11:29:53;;;;;;;4.57;0.60;;;15.10;99.90;;;;;;4953582;28;20324;-74
2023/03/24 11:32:24;;;;;;;3.50;0.60;;;14.80;99.90;;;;;;4953928;28;20212;-74
2023/03/24 11:34:59;;;;;;;1.67;0.50;;;15.00;99.90;;;;;;4954255;28;20212;-76
2023/03/24 11:37:32;;;;;;;3.03;0.60;;;15.40;99.90;;;;;;4954170;28;20211;-75
2023/03/24 11:40:21;;;;;;;5.50;0.77;;;15.40;99.90;;;;;;4954180;28;20247;-75
2023/03/24 11:42:50;;;;;;;2.90;0.50;;;15.50;99.90;;;;;;4954008;28;20222;-74
2023/03/24 11:45:28;;;;;;;3.77;0.67;;;15.50;99.90;;;;;;4952702;28;20214;-76
2023/03/24 11:47:57;;;;;;;1.60;0.50;;;15.70;99.90;;;;;;4954792;28;20635;-77
2023/03/24 11:50:28;;;;;;;4.00;0.60;;;15.60;99.90;;;;;;4954291;28;20212;-76
2023/03/24 11:53:03;;;;;;;3.27;0.67;;;15.70;99.90;;;;;;4953661;28;20222;-75
2023/03/24 11:55:37;;;;;;;3.57;0.70;;;15.60;99.90;;;;;;4954094;28;20204;-78
2023/03/24 11:58:12;;;;;;;3.70;0.50;;;15.50;99.90;;;;;;4953753;28;20215;-76
2023/03/24 12:00:43;;;;;;;5.53;0.40;;;15.50;99.90;;;;;;4954210;28;20217;-77
2023/03/24 12:03:48;;;;;;;2.47;0.73;;;15.70;99.90;;;;;;4953679;28;20540;-77
2023/03/24 12:06:28;;;;;;;3.50;0.60;;;15.50;99.90;;;;;;4938696;28;20566;-77
2023/03/24 12:09:06;;;;;;;2.03;0.50;;;15.60;99.90;;;;;;4953923;28;20327;-76
2023/03/24 12:11:48;;;;;;;3.23;0.50;;;15.90;99.90;;;;;;4953971;28;20208;-77
2023/03/24 12:14:24;;;;;;;1.50;0.37;;;15.90;99.90;;;;;;4953735;28;20215;-75
2023/03/24 12:16:56;;;;;;;3.83;0.80;;;15.70;99.90;;;;;;4954362;28;20222;-74
2023/03/24 12:19:46;;;;;;;1.23;0.63;;;15.50;99.90;;;;;;4953901;28;20326;-74
2023/03/24 12:22:26;;;;;;;2.80;0.50;;;15.40;99.90;;;;;;4948209;28;20226;-75
2023/03/24 12:25:29;;;;;;;4.80;0.60;;;15.10;99.90;;;;;;4940734;29;20212;-74
2023/03/24 12:28:07;;;;;;;0.80;0.30;;;15.00;99.90;;;;;;4952986;28;20211;-74
2023/03/24 12:30:40;;;;;;;5.57;1.10;;;15.20;99.90;;;;;;4953465;28;20208;-74
2023/03/24 12:33:25;;;;;;;2.07;0.50;;;15.40;99.90;;;;;;4953762;28;20630;-75
2023/03/24 12:36:08;;;;;;;4.70;0.73;;;15.80;99.90;;;;;;4952930;28;20223;-74
2023/03/24 12:38:47;;;;;;;4.77;0.67;;;15.80;99.90;;;;;;4953394;28;20274;-75
2023/03/24 12:41:45;;;;;;;4.00;0.47;;;15.80;99.90;;;;;;4953534;28;20583;-74
2023/03/24 12:44:38;;;;;;;1.67;0.70;;;16.00;99.90;;;;;;4952906;28;20218;-74
2023/03/24 12:47:19;;;;;;;1.57;0.50;;;16.00;99.90;;;;;;4953738;28;20212;-75
2023/03/24 12:50:00;;;;;;;0.80;0.40;;;16.00;99.90;;;;;;4953941;28;20228;-74
2023/03/24 12:52:51;;;;;;;2.43;0.40;;;15.90;99.90;;;;;;4953197;28;20521;-73
2023/03/24 12:55:24;;;;;;;2.47;0.40;;;16.10;99.90;;;;;;4953088;28;20220;-74
2023/03/24 12:57:56;;;;;;;1.90;0.40;;;15.90;99.90;;;;;;4952914;28;20594;-73
2023/03/24 13:00:28;;;;;;;4.83;0.77;;;15.40;99.90;;;;;;4952713;28;20275;-74
2023/03/24 13:02:59;;;;;;;5.20;0.50;;;15.20;99.90;;;;;;4953161;28;20223;-73
2023/03/24 13:05:30;;;;;;;2.33;0.57;;;15.10;99.90;;;;;;4952773;28;20218;-74
2023/03/24 13:08:02;;;;;;;1.07;0.37;;;14.80;99.90;;;;;;4952530;28;20203;-74
2023/03/24 13:10:30;;;;;;;1.97;0.57;;;14.40;99.90;;;;;;4952408;28;20567;-75
2023/03/24 13:13:03;;;;;;;2.27;0.50;;;13.80;99.90;;;;;;4952523;28;20215;-74
2023/03/24 13:15:34;;;;;;;2.87;0.50;;;13.30;99.90;;;;;;4954709;28;20208;-74
2023/03/24 13:18:12;;;;;;;4.10;0.90;;;13.20;99.90;;;;;;4956924;28;20302;-73
2023/03/24 13:20:43;;;;;;;4.97;0.80;;;13.10;99.90;;;;;;4941659;29;20235;-74
2023/03/24 13:23:27;;;;;;;4.00;0.90;;;13.00;99.90;;;;;;4957490;28;20216;-74
2023/03/24 13:26:00;;;;;;;1.57;0.53;;;12.80;99.90;;;;;;4959651;28;20222;-76
2023/03/24 13:28:35;;;;;;;1.37;0.60;;;12.40;99.90;;;;;;4957706;28;20590;-76
2023/03/24 13:31:03;;;;;;;3.43;0.43;;;12.10;99.90;;;;;;4957754;28;20207;-81
2023/03/24 13:33:33;;;;;;;1.27;0.40;;;11.90;99.90;;;;;;4956625;28;20214;-76
2023/03/24 13:36:15;;;;;;;1.70;0.60;;;11.70;99.90;;;;;;4955970;28;20234;-75
2023/03/24 13:38:48;;;;;;;1.83;0.57;;;11.60;99.90;;;;;;4956659;28;20777;-74
2023/03/24 13:41:19;;;;;;;2.07;0.50;;;11.80;99.90;;;;;;4956373;28;20212;-75
2023/03/24 13:43:50;;;;;;;1.33;0.50;;;12.10;99.90;;;;;;4956353;28;20285;-76
2023/03/24 13:46:18;;;;;;;2.93;0.30;;;12.40;99.90;;;;;;4956385;28;20212;-73
2023/03/24 13:48:49;;;;;;;2.00;0.60;;;12.60;99.90;;;;;;4956925;28;20314;-77
2023/03/24 13:51:19;;;;;;;3.10;0.63;;;12.60;99.90;;;;;;4956785;28;20275;-75
2023/03/24 13:53:52;;;;;;;3.33;0.70;;;12.80;99.90;;;;;;4956548;28;20214;-75
2023/03/24 13:56:26;;;;;;;1.63;0.60;;;12.90;99.90;;;;;;4955811;28;20310;-76
2023/03/24 13:59:26;;;;;;;1.63;0.40;;;13.10;99.90;;;;;;4955903;28;20597;-74
2023/03/24 14:02:21;;;;;;;0.93;0.40;;;13.40;99.90;;;;;;4956588;28;20652;-73
2023/03/24 14:04:50;;;;;;;3.37;0.40;;;13.50;99.90;;;;;;4940944;28;20291;-73
2023/03/24 14:07:48;;;;;;;2.57;0.70;;;13.70;99.90;;;;;;4956246;28;20204;-73
2023/03/24 14:10:40;;;;;;;2.30;0.60;;;14.00;99.90;;;;;;4935148;29;20233;-75
2023/03/24 14:13:21;;;;;;;2.87;0.63;;;14.20;99.90;;;;;;4954345;28;20271;-75
2023/03/24 14:15:52;;;;;;;7.53;0.80;;;14.20;99.90;;;;;;4955869;28;20200;-74
2023/03/24 14:18:40;;;;;;;1.13;0.40;;;14.20;99.90;;;;;;4955893;28;20671;-74
2023/03/24 14:21:09;;;;;;;2.27;0.37;;;13.80;99.90;;;;;;4955733;28;20204;-73
2023/03/24 14:23:38;;;;;;;1.80;0.60;;;13.60;99.90;;;;;;4955774;28;20208;-73
2023/03/24 14:26:08;;;;;;;2.17;0.40;;;13.60;99.90;;;;;;4954945;28;20208;-73
2023/03/24 14:28:38;;;;;;;0.80;0.40;;;13.70;99.90;;;;;;4956078;28;20235;-73
2023/03/24 14:31:19;;;;;;;1.93;0.83;;;13.80;99.90;;;;;;4956055;28;20223;-74
2023/03/24 14:34:01;;;;;;;4.60;0.63;;;13.90;99.90;;;;;;4955482;28;20219;-73
2023/03/24 14:36:30;;;;;;;3.47;0.50;;;14.10;99.90;;;;;;4955830;28;20215;-73
2023/03/24 14:39:06;;;;;;;1.93;0.50;;;14.40;99.90;;;;;;4955251;28;20228;-73
2023/03/24 14:41:37;;;;;;;3.33;0.40;;;14.60;99.90;;;;;;4954580;28;20222;-73
2023/03/24 14:44:06;;;;;;;1.60;0.50;;;14.70;99.90;;;;;;4955400;28;20208;-73
2023/03/24 14:46:43;;;;;;;1.80;0.47;;;14.70;99.90;;;;;;4955630;28;20306;-73
2023/03/24 14:49:23;;;;;;;2.10;0.70;;;14.70;99.90;;;;;;4954849;28;20657;-74
2023/03/24 14:51:58;;;;;;;1.17;0.40;;;14.80;99.90;;;;;;4955044;28;20291;-74
2023/03/24 14:54:30;;;;;;;1.70;0.40;;;14.70;99.90;;;;;;4955007;28;20212;-74
2023/03/24 14:56:58;;;;;;;1.33;0.50;;;14.50;99.90;;;;;;4955148;28;20207;-74
2023/03/24 14:59:38;;;;;;;2.10;0.43;;;14.30;99.90;;;;;;4955387;28;20323;-73
2023/03/24 15:02:25;;;;;;;0.60;0.30;;;14.30;99.90;;;;;;4955006;28;20540;-75
2023/03/24 15:05:17;;;;;;;1.07;0.30;;;14.10;99.90;;;;;;4954323;28;20243;-73
2023/03/24 15:07:46;;;;;;;0.67;0.20;;;14.00;99.90;;;;;;4954969;28;20562;-75
2023/03/24 15:10:15;;;;;;;1.40;0.30;;;13.90;99.90;;;;;;4955405;28;20232;-75
2023/03/24 15:12:45;;;;;;;0.90;0.33;;;13.80;99.90;;;;;;4954945;28;20219;-75
2023/03/24 15:15:17;;;;;;;0.73;0.33;;;13.90;99.90;;;;;;4954279;28;20212;-75
2023/03/24 15:17:46;;;;;;;0.83;0.30;;;13.90;99.90;;;;;;4951885;28;20678;-73
2023/03/24 15:20:24;;;;;;;2.53;0.20;;;13.80;99.90;;;;;;4954266;28;20240;-74
2023/03/24 15:22:53;;;;;;;2.67;0.50;;;13.90;99.90;;;;;;4954770;28;20212;-74
2023/03/24 15:25:26;;;;;;;0.83;0.30;;;14.00;99.90;;;;;;4954478;28;20212;-75
2023/03/24 15:27:53;;;;;;;1.17;0.40;;;14.00;99.90;;;;;;4954746;28;20739;-74
2023/03/24 15:30:21;;;;;;;1.63;0.60;;;14.00;99.90;;;;;;4954219;28;20672;-75
2023/03/24 15:32:50;;;;;;;2.00;0.33;;;13.90;99.90;;;;;;4954311;29;20208;-73
2023/03/24 15:35:19;;;;;;;1.73;0.30;;;13.90;99.90;;;;;;4954816;28;20637;-75
2023/03/24 15:37:51;;;;;;;1.90;0.47;;;14.00;99.90;;;;;;4953485;28;20212;-73
2023/03/24 15:40:36;;;;;;;2.30;0.40;;;14.00;99.90;;;;;;4954481;28;20727;-72
2023/03/24 15:43:05;;;;;;;1.00;0.23;;;13.90;99.90;;;;;;4955948;28;20215;-72
2023/03/24 15:45:34;;;;;;;2.30;0.80;;;14.00;99.90;;;;;;4955548;28;20222;-72
2023/03/24 15:48:07;;;;;;;1.87;0.60;;;13.90;99.90;;;;;;4955324;28;20218;-72
2023/03/24 15:50:37;;;;;;;1.73;0.30;;;13.80;99.90;;;;;;4954755;28;20204;-72
2023/03/24 15:53:06;;;;;;;1.27;0.40;;;13.70;99.90;;;;;;4955043;28;20305;-72
2023/03/24 15:55:34;;;;;;;1.30;0.43;;;13.60;99.90;;;;;;4955957;28;20208;-72
2023/03/24 15:58:18;;;;;;;2.00;0.40;;;13.50;99.90;;;;;;4950653;28;20216;-73
2023/03/24 16:00:45;;;;;;;3.13;0.50;;;13.50;99.90;;;;;;4935783;29;20237;-73
2023/03/24 16:03:16;;;;;;;1.60;0.40;;;13.50;99.90;;;;;;4945082;29;20595;-73
2023/03/24 16:05:49;;;;;;;2.73;0.40;;;13.60;99.90;;;;;;4955160;28;20208;-73
2023/03/24 16:08:28;;;;;;;4.07;0.50;;;13.50;99.90;;;;;;4954652;28;20218;-73
2023/03/24 16:11:03;;;;;;;1.17;0.50;;;13.40;99.90;;;;;;4955438;28;20208;-73
2023/03/24 16:13:29;;;;;;;0.97;0.20;;;13.30;99.90;;;;;;4955483;28;20207;-73
2023/03/24 16:15:58;;;;;;;1.53;0.37;;;13.10;99.90;;;;;;4955101;28;20546;-73
2023/03/24 16:18:31;;;;;;;1.90;0.50;;;13.10;99.90;;;;;;4955855;28;20224;-73
2023/03/24 16:20:59;;;;;;;4.53;0.40;;;13.10;99.90;;;;;;4955152;28;20238;-73
2023/03/24 16:23:26;;;;;;;7.63;0.60;;;13.20;99.90;;;;;;4954797;28;20695;-73
2023/03/24 16:25:54;;;;;;;3.90;0.53;;;13.20;99.90;;;;;;4955329;28;20228;-73
2023/03/24 16:28:22;;;;;;;2.40;0.50;;;13.30;99.90;;;;;;4954761;28;20231;-73
2023/03/24 16:30:55;;;;;;;3.73;1.30;;;13.30;99.90;;;;;;4954996;28;20564;-73
2023/03/24 16:33:22;;;;;;;0.97;0.40;;;13.30;99.90;;;;;;4955018;29;20259;-73
2023/03/24 16:35:50;;;;;;;2.63;0.67;;;13.40;99.90;;;;;;4955008;28;20208;-73
2023/03/24 16:38:17;;;;;;;3.60;0.47;;;13.50;99.90;;;;;;4954598;28;20254;-73
2023/03/24 16:40:46;;;;;;;4.30;0.63;;;13.40;99.90;;;;;;4954359;28;20236;-73
2023/03/24 16:43:14;;;;;;;4.10;0.63;;;13.40;99.90;;;;;;4955058;28;20212;-73
2023/03/24 16:45:41;;;;;;;3.63;0.40;;;13.60;99.90;;;;;;4955256;28;20207;-73
2023/03/24 16:48:09;;;;;;;1.77;0.43;;;13.60;99.90;;;;;;4954433;28;20212;-74
2023/03/24 16:50:38;;;;;;;1.67;0.50;;;13.60;99.90;;;;;;4954409;28;20207;-73
2023/03/24 16:53:07;;;;;;;2.80;0.60;;;13.50;99.90;;;;;;4954321;28;20212;-73
2023/03/24 16:55:35;;;;;;;1.40;0.50;;;13.50;99.90;;;;;;4954296;28;20212;-72
2023/03/24 16:58:02;;;;;;;1.10;0.40;;;13.40;99.90;;;;;;4954025;28;20224;-73
2023/03/24 17:00:29;;;;;;;2.20;0.50;;;13.40;99.90;;;;;;4954616;28;20287;-72
2023/03/24 17:02:58;;;;;;;2.13;0.40;;;13.20;99.90;;;;;;4954711;28;20595;-72
2023/03/24 17:05:27;;;;;;;1.23;0.40;;;12.90;99.90;;;;;;4954424;28;20270;-72
2023/03/24 17:07:54;;;;;;;1.27;0.33;;;12.40;99.90;;;;;;4954472;28;20296;-72
2023/03/24 17:10:22;;;;;;;3.80;0.50;;;12.10;99.90;;;;;;4954692;28;20291;-72
2023/03/24 17:12:50;;;;;;;0.93;0.27;;;11.90;99.90;;;;;;4954891;28;20207;-73
2023/03/24 17:15:23;;;;;;;1.83;0.50;;;11.70;99.90;;;;;;4954723;28;20204;-72
2023/03/24 17:17:50;;;;;;;3.10;0.53;;;11.40;99.90;;;;;;4954754;28;20204;-72
2023/03/24 17:20:17;;;;;;;3.93;0.50;;;11.20;99.90;;;;;;4954486;28;20239;-72
2023/03/24 17:22:46;;;;;;;1.27;0.50;;;11.00;99.90;;;;;;4954659;28;20226;-72
2023/03/24 17:25:15;;;;;;;1.07;0.40;;;10.70;99.90;;;;;;4952756;28;20222;-71
2023/03/24 17:27:43;;;;;;;0.20;0.10;;;10.30;99.90;;;;;;4952839;29;20295;-72
2023/03/24 17:30:15;;;;;;;0.90;0.20;;;10.10;99.90;;;;;;4954530;28;20699;-73
2023/03/24 17:32:42;;;;;;;0.57;0.20;;;10.00;99.90;;;;;;4954542;28;20204;-72
2023/03/24 17:35:11;;;;;;;2.50;0.20;;;9.90;99.90;;;;;;4954560;28;20212;-72
2023/03/24 17:37:38;;;;;;;0.97;0.20;;;9.90;99.90;;;;;;4934939;29;20216;-72
2023/03/24 17:40:09;;;;;;;0.70;0.13;;;9.80;99.90;;;;;;4934874;29;20694;-73
2023/03/24 17:42:37;;;;;;;0.30;0.20;;;9.80;99.90;;;;;;4935236;29;20213;-72
2023/03/24 17:45:07;;;;;;;0.83;0.20;;;9.80;99.90;;;;;;4947902;29;20204;-73
2023/03/24 17:47:35;;;;;;;1.77;0.13;;;9.70;99.90;;;;;;4954168;28;20222;-73
2023/03/24 17:50:03;;;;;;;0.87;0.20;;;9.80;99.90;;;;;;4954444;28;20348;-73
2023/03/24 17:52:30;;;;;;;0.30;0.10;;;9.80;99.90;;;;;;4954499;28;20212;-73
2023/03/24 17:54:57;;;;;;;0.30;0.10;;;9.80;99.90;;;;;;4954118;28;20571;-71
2023/03/24 17:57:23;;;;;;;0.40;0.17;;;9.80;99.90;;;;;;4953649;28;20569;-72
2023/03/24 17:59:50;;;;;;;0.30;0.20;;;9.80;99.90;;;;;;4954202;28;20228;-72
2023/03/24 18:02:18;;;;;;;1.53;0.90;;;9.80;99.90;;;;;;4957243;28;20204;-72
